Time;durP1;ratioP1;P1;durP2;ratioP2;P2;SDS_P1;SDS_P2;PMS_P1;PMS_P2;Temp;Humidity;BMP_temperature;BMP_pressure;BME280_temperature;BME280_humidity;BME280_pressure;Samples;Min_cycle;Max_cycle;Signal;HPM_P1;HPM_P2
2021/12/14 00:00:41;;;;;;;;;;;5.90;99.90;;;;;;5048804;28;19932;-80
2021/12/14 00:03:08;;;;;;;;;;;5.80;99.90;;;;;;5042839;28;19992;-80
2021/12/14 00:05:36;;;;;;;;;;;5.80;99.90;;;;;;5048613;28;19925;-81
2021/12/14 00:08:04;;;;;;;;;;;5.90;99.90;;;;;;5044776;28;19964;-81
2021/12/14 00:13:10;;;;;;;;;;;5.90;99.90;;;;;;5045878;28;19947;-80
2021/12/14 00:15:37;;;;;;;;;;;5.90;99.90;;;;;;5028548;28;20412;-81
2021/12/14 00:18:05;;;;;;;;;;;5.90;99.90;;;;;;5043683;28;19931;-81
2021/12/14 00:20:51;;;;;;;;;;;5.90;99.90;;;;;;5051378;28;19925;-80
2021/12/14 00:25:51;;;;;;;;;;;6.00;99.90;;;;;;5041207;28;20410;-81
2021/12/14 00:28:28;;;;;;;;;;;5.90;99.90;;;;;;5042210;28;19931;-80
2021/12/14 00:30:57;;;;;;;;;;;5.90;99.90;;;;;;5049102;28;19980;-81
2021/12/14 00:33:26;;;;;;;;;;;5.90;99.90;;;;;;5046953;28;19928;-80
2021/12/14 00:35:59;;;;;;;;;;;5.90;99.90;;;;;;5037997;28;19947;-80
2021/12/14 00:38:26;;;;;;;;;;;5.90;99.90;;;;;;5042175;28;19943;-80
2021/12/14 00:40:59;;;;;;;;;;;5.90;99.90;;;;;;5050868;28;20019;-81
2021/12/14 00:43:28;;;;;;;;;;;5.80;99.90;;;;;;5052356;28;19924;-80
2021/12/14 00:45:55;;;;;;;;;;;5.80;99.90;;;;;;5051108;28;20103;-81
2021/12/14 00:48:25;;;;;;;;;;;5.90;99.90;;;;;;5053443;28;19946;-81
2021/12/14 00:50:53;;;;;;;;;;;5.90;99.90;;;;;;5046515;28;20019;-81
2021/12/14 00:53:20;;;;;;;;;;;5.90;99.90;;;;;;5045099;28;20387;-81
2021/12/14 00:55:48;;;;;;;;;;;5.90;99.90;;;;;;5035259;28;20030;-80
2021/12/14 00:58:16;;;;;;;;;;;5.90;99.90;;;;;;5050554;28;19927;-80
2021/12/14 01:01:05;;;;;;;;;;;5.90;99.90;;;;;;5039914;28;20037;-80
2021/12/14 01:03:34;;;;;;;;;;;5.90;99.90;;;;;;5053306;28;20383;-80
2021/12/14 01:06:02;;;;;;;;;;;5.90;99.90;;;;;;5052393;28;19933;-81
2021/12/14 01:08:34;;;;;;;;;;;6.00;99.90;;;;;;5051406;28;20032;-80
2021/12/14 01:11:05;;;;;;;;;;;6.00;99.90;;;;;;5052729;28;20023;-81
2021/12/14 01:13:36;;;;;;;;;;;6.00;99.90;;;;;;5052854;28;20371;-80
2021/12/14 01:16:30;;;;;;;;;;;6.00;99.90;;;;;;5052484;28;19952;-81
2021/12/14 01:19:12;;;;;;;;;;;6.00;99.90;;;;;;5054012;28;19925;-80
2021/12/14 01:24:41;;;;;;;;;;;6.00;99.90;;;;;;5045352;28;19947;-81
2021/12/14 01:27:10;;;;;;;;;;;6.00;99.90;;;;;;5039509;28;19925;-81
2021/12/14 01:29:37;;;;;;;;;;;6.00;99.90;;;;;;5051548;28;19935;-80
2021/12/14 01:32:04;;;;;;;;;;;6.00;99.90;;;;;;5049578;28;19924;-81
2021/12/14 01:34:36;;;;;;;;;;;6.00;99.90;;;;;;5052146;28;19924;-80
2021/12/14 01:37:07;;;;;;;;;;;6.00;99.90;;;;;;5054464;28;19931;-80
2021/12/14 01:42:14;;;;;;;;;;;6.00;99.90;;;;;;5051533;28;19950;-80
2021/12/14 01:44:43;;;;;;;;;;;6.00;99.90;;;;;;5052422;28;20027;-80
2021/12/14 01:47:15;;;;;;;;;;;6.00;99.90;;;;;;5052069;28;20344;-80
2021/12/14 01:49:45;;;;;;;;;;;6.10;99.90;;;;;;5053278;28;19932;-80
2021/12/14 01:52:14;;;;;;;;;;;6.00;99.90;;;;;;5043896;28;19925;-80
2021/12/14 01:54:43;;;;;;;;;;;6.10;99.90;;;;;;5047154;28;20008;-80
2021/12/14 01:57:12;;;;;;;;;;;6.10;99.90;;;;;;5045000;28;20299;-80
2021/12/14 01:59:41;;;;;;;;;;;6.10;99.90;;;;;;5043647;28;20048;-80
2021/12/14 02:04:44;;;;;;;;;;;6.00;99.90;;;;;;5046152;28;19986;-80
2021/12/14 02:07:12;;;;;;;;;;;6.00;99.90;;;;;;5049579;28;19925;-80
2021/12/14 02:09:39;;;;;;;;;;;6.00;99.90;;;;;;5049058;28;19924;-80
2021/12/14 02:12:25;;;;;;;;;;;6.00;99.90;;;;;;5052024;28;20023;-80
2021/12/14 02:15:05;;;;;;;;;;;6.00;99.90;;;;;;5056613;28;19937;-80
2021/12/14 02:17:31;;;;;;;;;;;6.00;99.90;;;;;;5051799;28;19933;-81
2021/12/14 02:19:58;;;;;;;;;;;6.00;99.90;;;;;;5051337;28;19925;-80
2021/12/14 02:22:26;;;;;;;;;;;6.00;99.90;;;;;;5048970;28;20021;-81
2021/12/14 02:24:53;;;;;;;;;;;6.00;99.90;;;;;;5045891;28;19938;-80
2021/12/14 02:27:20;;;;;;;;;;;6.00;99.90;;;;;;5049367;28;20434;-81
2021/12/14 02:29:47;;;;;;;;;;;6.00;99.90;;;;;;5051785;28;19935;-80
2021/12/14 02:32:19;;;;;;;;;;;6.00;99.90;;;;;;5053346;28;19932;-81
2021/12/14 02:35:00;;;;;;;;;;;6.00;99.90;;;;;;5051277;28;19976;-81
2021/12/14 02:37:38;;;;;;;;;;;6.00;99.90;;;;;;5052004;28;20015;-80
2021/12/14 02:40:17;;;;;;;;;;;5.90;99.90;;;;;;5035988;28;20007;-81
2021/12/14 02:42:44;;;;;;;;;;;5.80;99.90;;;;;;5044763;28;20012;-80
2021/12/14 02:45:11;;;;;;;;;;;5.80;99.90;;;;;;5045151;28;19931;-81
2021/12/14 02:47:38;;;;;;;;;;;5.90;99.90;;;;;;5045072;28;19924;-80
2021/12/14 02:50:05;;;;;;;;;;;5.80;99.90;;;;;;5052200;28;19939;-80
2021/12/14 02:52:35;;;;;;;;;;;5.80;99.90;;;;;;5051892;28;19925;-80
2021/12/14 02:55:06;;;;;;;;;;;5.80;99.90;;;;;;5051047;28;20513;-81
2021/12/14 02:57:35;;;;;;;;;;;5.80;99.90;;;;;;5051748;28;20015;-80
2021/12/14 03:00:07;;;;;;;;;;;5.80;99.90;;;;;;5053281;28;19942;-80
2021/12/14 03:02:34;;;;;;;;;;;5.80;99.90;;;;;;5044414;28;20000;-80
2021/12/14 03:05:07;;;;;;;;;;;5.80;99.90;;;;;;5052501;28;19944;-80
2021/12/14 03:07:40;;;;;;;;;;;5.90;99.90;;;;;;5040759;28;19925;-79
2021/12/14 03:10:20;;;;;;;;;;;5.90;99.90;;;;;;5048725;28;19933;-80
2021/12/14 03:12:49;;;;;;;;;;;5.80;99.90;;;;;;5038659;28;19925;-79
2021/12/14 03:15:21;;;;;;;;;;;5.90;99.90;;;;;;5033479;28;19979;-80
2021/12/14 03:17:49;;;;;;;;;;;5.90;99.90;;;;;;5049090;28;19931;-80
2021/12/14 03:20:21;;;;;;;;;;;5.90;99.90;;;;;;5048277;28;19938;-80
2021/12/14 03:22:47;;;;;;;;;;;5.90;99.90;;;;;;5051398;28;20358;-80
2021/12/14 03:25:15;;;;;;;;;;;5.90;99.90;;;;;;5049769;28;20535;-80
2021/12/14 03:27:43;;;;;;;;;;;5.90;99.90;;;;;;5048301;28;19956;-79
2021/12/14 03:30:25;;;;;;;;;;;5.80;99.90;;;;;;5047532;28;19931;-80
2021/12/14 03:32:54;;;;;;;;;;;5.80;99.90;;;;;;5043775;28;19933;-79
2021/12/14 03:35:33;;;;;;;;;;;5.90;99.90;;;;;;5049391;28;19942;-80
2021/12/14 03:38:05;;;;;;;;;;;5.90;99.90;;;;;;5050092;28;19925;-80
2021/12/14 03:40:35;;;;;;;;;;;5.90;99.90;;;;;;5050013;28;20025;-80
2021/12/14 03:43:05;;;;;;;;;;;5.90;99.90;;;;;;5051563;28;20387;-80
2021/12/14 03:45:32;;;;;;;;;;;5.90;99.90;;;;;;5051785;28;19931;-80
2021/12/14 03:48:00;;;;;;;;;;;5.80;99.90;;;;;;5043679;28;19925;-80
2021/12/14 03:50:41;;;;;;;;;;;5.80;99.90;;;;;;5051507;28;19929;-80
2021/12/14 03:53:09;;;;;;;;;;;5.80;99.90;;;;;;5046219;28;20366;-80
2021/12/14 03:55:42;;;;;;;;;;;5.80;99.90;;;;;;5042512;28;19947;-81
2021/12/14 03:58:13;;;;;;;;;;;5.80;99.90;;;;;;5046507;28;19924;-81
2021/12/14 04:00:43;;;;;;;;;;;5.80;99.90;;;;;;5048678;28;19932;-80
2021/12/14 04:03:11;;;;;;;;;;;5.80;99.90;;;;;;5047353;28;19924;-80
2021/12/14 04:05:40;;;;;;;;;;;5.80;99.90;;;;;;5048337;28;20022;-81
2021/12/14 04:08:08;;;;;;;;;;;5.80;99.90;;;;;;5051305;28;19963;-81
2021/12/14 04:10:36;;;;;;;;;;;5.80;99.90;;;;;;5051765;28;19932;-80
2021/12/14 04:13:04;;;;;;;;;;;5.90;99.90;;;;;;5052117;28;19932;-81
2021/12/14 04:15:31;;;;;;;;;;;5.90;99.90;;;;;;5043698;28;19928;-81
2021/12/14 04:17:58;;;;;;;;;;;5.90;99.90;;;;;;5035232;28;19957;-80
2021/12/14 04:20:27;;;;;;;;;;;5.90;99.90;;;;;;5046429;28;19925;-81
2021/12/14 04:22:54;;;;;;;;;;;5.90;99.90;;;;;;5044621;28;20355;-80
2021/12/14 04:25:23;;;;;;;;;;;5.90;99.90;;;;;;5050509;28;19925;-80
2021/12/14 04:27:51;;;;;;;;;;;5.90;99.90;;;;;;5062699;28;20075;-80
2021/12/14 04:30:18;;;;;;;;;;;5.90;99.90;;;;;;5050937;28;19937;-81
2021/12/14 04:32:48;;;;;;;;;;;5.90;99.90;;;;;;5046325;28;19995;-80
2021/12/14 04:35:16;;;;;;;;;;;5.90;99.90;;;;;;5061036;28;19925;-78
2021/12/14 04:37:47;;;;;;;;;;;5.90;99.90;;;;;;5043371;28;20375;-79
2021/12/14 04:40:37;;;;;;;;;;;5.90;99.90;;;;;;5052188;28;19931;-79
2021/12/14 04:54:21;;;;;;;;;;;5.90;99.90;;;;;;5041744;28;20059;-79
2021/12/14 04:56:48;;;;;;;;;;;5.90;99.90;;;;;;5046042;28;19944;-79
2021/12/14 04:59:20;;;;;;;;;;;5.80;99.90;;;;;;5049531;28;19999;-79
2021/12/14 05:01:47;;;;;;;;;;;5.90;99.90;;;;;;5039321;28;20529;-79
2021/12/14 05:04:18;;;;;;;;;;;5.90;99.90;;;;;;5047769;28;20335;-77
2021/12/14 05:06:50;;;;;;;;;;;5.90;99.90;;;;;;5049014;28;20538;-77
2021/12/14 05:09:21;;;;;;;;;;;5.90;99.90;;;;;;5045777;28;19971;-79
2021/12/14 05:12:08;;;;;;;;;;;5.90;99.90;;;;;;5048158;28;19928;-79
2021/12/14 05:14:36;;;;;;;;;;;5.90;99.90;;;;;;5054694;28;19925;-78
2021/12/14 05:17:05;;;;;;;;;;;5.90;99.90;;;;;;5046512;28;19932;-78
2021/12/14 05:19:33;;;;;;;;;;;5.90;99.90;;;;;;5043389;28;19924;-78
2021/12/14 05:22:02;;;;;;;;;;;5.90;99.90;;;;;;5065538;28;19925;-79
2021/12/14 05:24:29;;;;;;;;;;;5.90;99.90;;;;;;5023929;28;19937;-79
2021/12/14 05:27:01;;;;;;;;;;;5.90;99.90;;;;;;5051783;28;20244;-79
2021/12/14 05:29:29;;;;;;;;;;;5.90;99.90;;;;;;5051539;28;19928;-80
2021/12/14 05:31:56;;;;;;;;;;;5.90;99.90;;;;;;5051107;28;19931;-79
2021/12/14 05:34:24;;;;;;;;;;;6.00;99.90;;;;;;5050868;28;20386;-79
2021/12/14 05:36:51;;;;;;;;;;;5.90;99.90;;;;;;5050350;28;20054;-79
2021/12/14 05:44:30;;;;;;;;;;;5.90;99.90;;;;;;5050661;28;20379;-79
2021/12/14 05:46:59;;;;;;;;;;;6.00;99.90;;;;;;5051548;28;19933;-78
2021/12/14 05:49:38;;;;;;;;;;;5.90;99.90;;;;;;5049969;28;19978;-79
2021/12/14 05:52:11;;;;;;;;;;;5.90;99.90;;;;;;5046334;28;19939;-79
2021/12/14 05:54:40;;;;;;;;;;;5.90;99.90;;;;;;5054372;28;19945;-79
2021/12/14 05:57:11;;;;;;;;;;;5.90;99.90;;;;;;5044115;28;19938;-79
2021/12/14 05:59:38;;;;;;;;;;;5.90;99.90;;;;;;5039941;28;19984;-79
2021/12/14 06:02:07;;;;;;;;;;;5.90;99.90;;;;;;5047648;28;19931;-80
2021/12/14 06:04:43;;;;;;;;;;;5.90;99.90;;;;;;5051300;28;19925;-79
2021/12/14 06:07:10;;;;;;;;;;;5.90;99.90;;;;;;5047181;28;19924;-80
2021/12/14 06:09:43;;;;;;;;;;;5.90;99.90;;;;;;5042817;28;19950;-80
2021/12/14 06:12:15;;;;;;;;;;;5.90;99.90;;;;;;5047569;28;20069;-79
2021/12/14 06:14:51;;;;;;;;;;;5.90;99.90;;;;;;5042238;28;19952;-80
2021/12/14 06:17:26;;;;;;;;;;;6.00;99.90;;;;;;5048466;28;20109;-80
2021/12/14 06:19:55;;;;;;;;;;;6.00;99.90;;;;;;5048945;28;20301;-80
2021/12/14 06:22:27;;;;;;;;;;;6.00;99.90;;;;;;5046932;28;19932;-79
2021/12/14 06:24:58;;;;;;;;;;;6.00;99.90;;;;;;5049264;28;19953;-80
2021/12/14 06:27:26;;;;;;;;;;;6.00;99.90;;;;;;5060282;28;20383;-80
2021/12/14 06:29:55;;;;;;;;;;;5.90;99.90;;;;;;5043496;28;20005;-80
2021/12/14 06:32:23;;;;;;;;;;;5.90;99.90;;;;;;5047782;28;19932;-80
2021/12/14 06:34:52;;;;;;;;;;;5.90;99.90;;;;;;5041083;28;19933;-80
2021/12/14 06:37:41;;;;;;;;;;;5.90;99.90;;;;;;5040870;28;19925;-80
2021/12/14 06:40:40;;;;;;;;;;;5.90;99.90;;;;;;5046863;28;19928;-80
2021/12/14 06:43:09;;;;;;;;;;;5.90;99.90;;;;;;5027547;28;19925;-80
2021/12/14 06:45:41;;;;;;;;;;;5.90;99.90;;;;;;5009349;28;19932;-80
2021/12/14 06:48:14;;;;;;;;;;;5.90;99.90;;;;;;5020490;28;20806;-80
2021/12/14 06:50:45;;;;;;;;;;;5.90;99.90;;;;;;5026918;28;19936;-80
2021/12/14 06:53:14;;;;;;;;;;;5.90;99.90;;;;;;5024539;28;20469;-80
2021/12/14 06:55:41;;;;;;;;;;;5.90;99.90;;;;;;5007696;28;22106;-81
2021/12/14 06:58:13;;;;;;;;;;;6.00;99.90;;;;;;5022637;28;19933;-81
2021/12/14 07:00:57;;;;;;;;;;;5.90;99.90;;;;;;5024776;28;19925;-81
2021/12/14 07:03:34;;;;;;;;;;;6.00;99.90;;;;;;5006827;28;20838;-81
2021/12/14 07:06:01;;;;;;;;;;;6.00;99.90;;;;;;5027399;28;20326;-80
2021/12/14 07:08:27;;;;;;;;;;;6.00;99.90;;;;;;5017725;28;19924;-80
2021/12/14 07:10:55;;;;;;;;;;;6.00;99.90;;;;;;5012967;28;19931;-78
2021/12/14 07:13:24;;;;;;;;;;;5.90;99.90;;;;;;5035871;28;19937;-78
2021/12/14 07:15:51;;;;;;;;;;;5.90;99.90;;;;;;5022892;28;19951;-79
2021/12/14 07:18:23;;;;;;;;;;;6.00;99.90;;;;;;5025918;28;20301;-79
2021/12/14 07:20:50;;;;;;;;;;;6.00;99.90;;;;;;5044563;28;20409;-79
2021/12/14 07:23:26;;;;;;;;;;;6.00;99.90;;;;;;5041611;28;19931;-79
2021/12/14 07:26:07;;;;;;;;;;;5.90;99.90;;;;;;5043590;28;19931;-79
2021/12/14 07:28:57;;;;;;;;;;;6.00;99.90;;;;;;5041004;28;20170;-79
2021/12/14 07:31:24;;;;;;;;;;;5.90;99.90;;;;;;5048827;28;19935;-79
2021/12/14 07:33:59;;;;;;;;;;;5.90;99.90;;;;;;5062544;28;19968;-79
2021/12/14 07:36:27;;;;;;;;;;;5.90;99.90;;;;;;5048588;28;20007;-79
2021/12/14 07:38:57;;;;;;;;;;;5.90;99.90;;;;;;5049172;28;19925;-79
2021/12/14 07:41:24;;;;;;;;;;;5.90;99.90;;;;;;5048480;28;19965;-78
2021/12/14 07:43:51;;;;;;;;;;;6.00;99.90;;;;;;5049319;28;19929;-79
2021/12/14 07:46:38;;;;;;;;;;;6.00;99.90;;;;;;5048222;28;19944;-79
2021/12/14 07:49:07;;;;;;;;;;;6.00;99.90;;;;;;5048709;28;20048;-79
2021/12/14 07:51:35;;;;;;;;;;;6.00;99.90;;;;;;5054528;28;19925;-79
2021/12/14 07:54:22;;;;;;;;;;;6.00;99.90;;;;;;5048333;28;20020;-79
2021/12/14 07:56:51;;;;;;;;;;;6.00;99.90;;;;;;5045259;28;20023;-79
2021/12/14 07:59:17;;;;;;;;;;;6.00;99.90;;;;;;5051096;28;19933;-79
2021/12/14 08:01:46;;;;;;;;;;;6.00;99.90;;;;;;5048481;28;20015;-79
2021/12/14 08:04:13;;;;;;;;;;;6.00;99.90;;;;;;5036743;28;19925;-79
2021/12/14 08:06:45;;;;;;;;;;;6.00;99.90;;;;;;5035739;28;19936;-78
2021/12/14 08:09:17;;;;;;;;;;;6.10;99.90;;;;;;5046289;28;19935;-80
2021/12/14 08:11:49;;;;;;;;;;;6.10;99.90;;;;;;5059265;28;20016;-80
2021/12/14 08:14:18;;;;;;;;;;;6.10;99.90;;;;;;5054625;28;20011;-79
2021/12/14 08:16:48;;;;;;;;;;;6.10;99.90;;;;;;5049173;28;19932;-79
2021/12/14 08:19:22;;;;;;;;;;;6.10;99.90;;;;;;5048894;28;19925;-80
2021/12/14 08:21:49;;;;;;;;;;;6.10;99.90;;;;;;5046200;28;19944;-80
2021/12/14 08:24:17;;;;;;;;;;;6.10;99.90;;;;;;5049534;28;19924;-80
2021/12/14 08:26:46;;;;;;;;;;;6.10;99.90;;;;;;5045556;28;19991;-80
2021/12/14 08:29:26;;;;;;;;;;;6.10;99.90;;;;;;5047336;28;19939;-80
2021/12/14 08:31:59;;;;;;;;;;;6.10;99.90;;;;;;5050080;28;19929;-80
2021/12/14 08:34:31;;;;;;;;;;;6.10;99.90;;;;;;5049412;28;19924;-79
2021/12/14 08:37:31;;;;;;;;;;;6.20;99.90;;;;;;5048827;28;19924;-80
2021/12/14 08:40:02;;;;;;;;;;;6.20;99.90;;;;;;5046880;28;20403;-80
2021/12/14 08:43:03;;;;;;;;;;;6.20;99.90;;;;;;5049948;28;19959;-80
2021/12/14 08:45:34;;;;;;;;;;;6.20;99.90;;;;;;5067355;28;19987;-80
2021/12/14 08:48:06;;;;;;;;;;;6.20;99.90;;;;;;5066393;28;19925;-80
2021/12/14 08:50:42;;;;;;;;;;;6.30;99.90;;;;;;5066077;28;19925;-79
2021/12/14 08:53:09;;;;;;;;;;;6.30;99.90;;;;;;5052661;28;19925;-79
2021/12/14 08:55:37;;;;;;;;;;;6.30;99.90;;;;;;5067656;28;19925;-79
2021/12/14 08:58:04;;;;;;;;;;;6.30;99.90;;;;;;5066041;28;20041;-79
2021/12/14 09:00:39;;;;;;;;;;;6.30;99.90;;;;;;5071438;28;19938;-79
2021/12/14 09:03:07;;;;;;;;;;;6.30;99.90;;;;;;5070966;28;19928;-79
2021/12/14 09:05:41;;;;;;;;;;;6.30;99.90;;;;;;5059629;28;20383;-79
2021/12/14 09:08:08;;;;;;;;;;;6.30;99.90;;;;;;5065800;28;20018;-78
2021/12/14 09:10:38;;;;;;;;;;;6.30;99.90;;;;;;5072797;28;19987;-79
2021/12/14 09:13:08;;;;;;;;;;;6.30;99.90;;;;;;5073188;28;19967;-79
2021/12/14 09:15:40;;;;;;;;;;;6.20;99.90;;;;;;5070517;28;19925;-78
2021/12/14 09:18:07;;;;;;;;;;;6.20;99.90;;;;;;5068691;28;19983;-79
2021/12/14 09:20:36;;;;;;;;;;;6.30;99.90;;;;;;5054472;28;19938;-79
2021/12/14 09:23:06;;;;;;;;;;;6.30;99.90;;;;;;5052452;28;19998;-79
2021/12/14 09:25:32;;;;;;;;;;;6.40;99.90;;;;;;5049453;28;19935;-79
2021/12/14 09:28:00;;;;;;;;;;;6.40;99.90;;;;;;5054744;28;19932;-79
2021/12/14 09:30:28;;;;;;;;;;;6.40;99.90;;;;;;5038524;28;19943;-79
2021/12/14 09:32:56;;;;;;;;;;;6.40;99.90;;;;;;5052785;28;19925;-79
2021/12/14 09:35:24;;;;;;;;;;;6.40;99.90;;;;;;5042263;28;19925;-78
2021/12/14 09:37:52;;;;;;;;;;;6.40;99.90;;;;;;5048547;28;20014;-79
2021/12/14 09:40:28;;;;;;;;;;;6.50;99.90;;;;;;5047467;28;20023;-79
2021/12/14 09:42:55;;;;;;;;;;;6.50;99.90;;;;;;5038861;28;20680;-79
2021/12/14 09:45:25;;;;;;;;;;;6.50;99.90;;;;;;5053916;28;20353;-79
2021/12/14 09:47:52;;;;;;;;;;;6.60;99.90;;;;;;5052245;28;19925;-80
2021/12/14 09:50:32;;;;;;;;;;;6.60;99.90;;;;;;5051365;28;20311;-79
2021/12/14 09:53:00;;;;;;;;;;;6.60;99.90;;;;;;5052721;28;20012;-79
2021/12/14 09:55:30;;;;;;;;;;;6.60;99.90;;;;;;5052179;28;19942;-79
2021/12/14 09:57:59;;;;;;;;;;;6.60;99.90;;;;;;5046866;28;19935;-80
2021/12/14 10:00:28;;;;;;;;;;;6.60;99.90;;;;;;5055084;28;19925;-80
2021/12/14 10:02:56;;;;;;;;;;;6.50;99.90;;;;;;5046956;28;19925;-80
2021/12/14 10:05:35;;;;;;;;;;;6.50;99.90;;;;;;5051742;28;19976;-80
2021/12/14 10:08:14;;;;;;;;;;;6.50;99.90;;;;;;5043981;28;19945;-79
2021/12/14 10:10:43;;;;;;;;;;;6.40;99.90;;;;;;5061348;28;19947;-79
2021/12/14 10:13:10;;;;;;;;;;;6.40;99.90;;;;;;5052390;28;20350;-79
2021/12/14 10:15:42;;;;;;;;;;;6.40;99.90;;;;;;5050355;28;19965;-78
2021/12/14 10:18:11;;;;;;;;;;;6.40;99.90;;;;;;5046861;28;19925;-79
2021/12/14 10:20:47;;;;;;;;;;;6.50;99.90;;;;;;5063956;28;19936;-80
2021/12/14 10:23:16;;;;;;;;;;;6.70;99.90;;;;;;5034159;28;19931;-80
2021/12/14 10:25:44;;;;;;;;;;;6.70;99.90;;;;;;5048232;28;19948;-79
2021/12/14 10:28:10;;;;;;;;;;;6.80;99.90;;;;;;5038613;28;19935;-79
2021/12/14 10:30:42;;;;;;;;;;;6.80;99.90;;;;;;5059921;28;19934;-78
2021/12/14 10:33:09;;;;;;;;;;;6.70;99.90;;;;;;5047695;28;19969;-78
2021/12/14 10:35:43;;;;;;;;;;;6.60;99.90;;;;;;5047857;28;20528;-79
2021/12/14 10:38:19;;;;;;;;;;;6.40;99.90;;;;;;5053063;28;19925;-79
2021/12/14 10:43:38;;;;;;;;;;;6.40;99.90;;;;;;5068527;28;19932;-79
2021/12/14 10:46:09;;;;;;;;;;;6.50;99.90;;;;;;5045399;28;20514;-79
2021/12/14 10:48:37;;;;;;;;;;;6.60;99.90;;;;;;5049139;28;19942;-79
2021/12/14 10:51:06;;;;;;;;;;;6.60;99.90;;;;;;5036372;28;20397;-80
2021/12/14 10:53:33;;;;;;;;;;;6.50;99.90;;;;;;5050816;28;19937;-80
2021/12/14 10:56:17;;;;;;;;;;;6.50;99.90;;;;;;5049639;28;19932;-80
2021/12/14 10:58:46;;;;;;;;;;;6.50;99.90;;;;;;5048432;28;19925;-80
2021/12/14 11:01:15;;;;;;;;;;;6.60;99.90;;;;;;5050656;28;19931;-80
2021/12/14 11:03:45;;;;;;;;;;;6.60;99.90;;;;;;5048917;28;19945;-79
2021/12/14 11:06:15;;;;;;;;;;;6.60;99.90;;;;;;5050300;28;19925;-81
2021/12/14 11:09:40;;;;;;;;;;;6.70;99.90;;;;;;5049198;28;19946;-80
2021/12/14 11:11:54;;;;;;;;;;;6.80;99.90;;;;;;5032403;28;19948;-80
2021/12/14 11:14:28;;;;;;;;;;;6.80;99.90;;;;;;5034884;28;20020;-80
2021/12/14 11:19:52;;;;;;;;;;;6.90;99.90;;;;;;5036398;28;19925;-80
2021/12/14 11:22:22;;;;;;;;;;;7.10;99.90;;;;;;5046555;28;19925;-80
2021/12/14 11:24:52;;;;;;;;;;;7.00;99.90;;;;;;5044784;28;19929;-81
2021/12/14 11:27:31;;;;;;;;;;;7.00;99.90;;;;;;5039447;28;19935;-80
2021/12/14 11:30:06;;;;;;;;;;;7.00;99.90;;;;;;5056781;28;19963;-81
2021/12/14 11:32:34;;;;;;;;;;;6.80;99.90;;;;;;5048761;28;19939;-81
2021/12/14 11:35:02;;;;;;;;;;;6.80;99.90;;;;;;5050625;28;19940;-79
2021/12/14 11:37:34;;;;;;;;;;;6.70;99.90;;;;;;5038169;28;20285;-78
2021/12/14 11:40:01;;;;;;;;;;;6.60;99.90;;;;;;5057937;28;19944;-81
2021/12/14 11:42:28;;;;;;;;;;;6.60;99.90;;;;;;5044593;28;19967;-81
2021/12/14 11:45:00;;;;;;;;;;;6.60;99.90;;;;;;5044874;28;19934;-80
2021/12/14 11:50:03;;;;;;;;;;;6.60;99.90;;;;;;5045051;28;19978;-79
2021/12/14 11:52:53;;;;;;;;;;;6.60;99.90;;;;;;5042972;28;19933;-77
2021/12/14 11:55:28;;;;;;;;;;;6.60;99.90;;;;;;5041754;28;19928;-76
2021/12/14 11:58:03;;;;;;;;;;;6.50;99.90;;;;;;5054409;28;20025;-77
2021/12/14 12:00:31;;;;;;;;;;;6.50;99.90;;;;;;5040618;28;19936;-76
2021/12/14 12:03:16;;;;;;;;;;;6.50;99.90;;;;;;5048118;28;20502;-76
2021/12/14 12:06:07;;;;;;;;;;;6.50;99.90;;;;;;5042952;28;19935;-76
2021/12/14 12:11:23;;;;;;;;;;;6.50;99.90;;;;;;5048729;28;19951;-79
2021/12/14 12:13:50;;;;;;;;;;;6.60;99.90;;;;;;5048452;28;19925;-76
2021/12/14 12:16:20;;;;;;;;;;;6.50;99.90;;;;;;5043247;28;19925;-76
2021/12/14 12:19:05;;;;;;;;;;;6.50;99.90;;;;;;5051702;28;19932;-76
2021/12/14 12:21:32;;;;;;;;;;;6.40;99.90;;;;;;5049572;28;19938;-76
2021/12/14 12:23:59;;;;;;;;;;;6.40;99.90;;;;;;5046750;28;20401;-76
2021/12/14 12:26:29;;;;;;;;;;;6.30;99.90;;;;;;5048990;28;19932;-77
2021/12/14 12:29:00;;;;;;;;;;;6.30;99.90;;;;;;5042851;28;20003;-77
2021/12/14 12:31:33;;;;;;;;;;;6.20;99.90;;;;;;5047237;28;19925;-76
2021/12/14 12:34:00;;;;;;;;;;;6.20;99.90;;;;;;5050893;28;19929;-76
2021/12/14 12:36:35;;;;;;;;;;;6.20;99.90;;;;;;5027150;28;20055;-76
2021/12/14 12:39:02;;;;;;;;;;;6.20;99.90;;;;;;5050304;28;19978;-78
2021/12/14 12:41:37;;;;;;;;;;;6.20;99.90;;;;;;5052584;28;20389;-78
2021/12/14 12:44:06;;;;;;;;;;;6.20;99.90;;;;;;5062888;28;19935;-78
2021/12/14 12:46:54;;;;;;;;;;;6.20;99.90;;;;;;5047855;28;19972;-78
2021/12/14 12:49:25;;;;;;;;;;;6.20;99.90;;;;;;5053620;28;20295;-77
2021/12/14 12:51:52;;;;;;;;;;;6.10;99.90;;;;;;5045901;28;19955;-77
2021/12/14 12:54:25;;;;;;;;;;;6.20;99.90;;;;;;5055614;28;20664;-75
2021/12/14 12:57:10;;;;;;;;;;;6.10;99.90;;;;;;5048859;28;20409;-75
2021/12/14 12:59:56;;;;;;;;;;;6.10;99.90;;;;;;5045788;28;19931;-76
2021/12/14 13:02:30;;;;;;;;;;;6.10;99.90;;;;;;5047718;28;19947;-76
2021/12/14 13:05:00;;;;;;;;;;;6.10;99.90;;;;;;5040771;28;19930;-79
2021/12/14 13:07:41;;;;;;;;;;;6.20;99.90;;;;;;5045571;28;19931;-79
2021/12/14 13:10:11;;;;;;;;;;;6.20;99.90;;;;;;5041313;28;19931;-78
2021/12/14 13:12:38;;;;;;;;;;;6.20;99.90;;;;;;5048455;28;19932;-79
2021/12/14 13:15:05;;;;;;;;;;;6.20;99.90;;;;;;5050625;28;19931;-78
2021/12/14 13:17:32;;;;;;;;;;;6.20;99.90;;;;;;5053695;28;20411;-77
2021/12/14 13:19:59;;;;;;;;;;;6.30;99.90;;;;;;5033954;28;19971;-77
2021/12/14 13:22:26;;;;;;;;;;;6.20;99.90;;;;;;5060426;28;19988;-77
2021/12/14 13:24:53;;;;;;;;;;;6.30;99.90;;;;;;5056196;28;19925;-77
2021/12/14 13:27:23;;;;;;;;;;;6.20;99.90;;;;;;5049179;28;19928;-77
2021/12/14 13:29:54;;;;;;;;;;;6.20;99.90;;;;;;5045082;28;19939;-77
2021/12/14 13:32:26;;;;;;;;;;;6.20;99.90;;;;;;5040170;28;19940;-77
2021/12/14 13:34:59;;;;;;;;;;;6.20;99.90;;;;;;5050549;28;20368;-77
2021/12/14 13:37:32;;;;;;;;;;;6.20;99.90;;;;;;5044465;28;19971;-77
2021/12/14 13:40:02;;;;;;;;;;;6.30;99.90;;;;;;5041725;28;20291;-80
2021/12/14 13:42:33;;;;;;;;;;;6.40;99.90;;;;;;5039123;28;19937;-80
2021/12/14 13:45:03;;;;;;;;;;;6.50;99.90;;;;;;5049890;28;19933;-77
2021/12/14 13:47:30;;;;;;;;;;;6.50;99.90;;;;;;5046265;28;19929;-80
2021/12/14 13:49:59;;;;;;;;;;;6.50;99.90;;;;;;5049042;28;20006;-80
2021/12/14 13:52:25;;;;;;;;;;;6.50;99.90;;;;;;5041844;28;20039;-80
2021/12/14 13:55:22;;;;;;;;;;;6.50;99.90;;;;;;5049322;28;19924;-77
2021/12/14 13:57:54;;;;;;;;;;;6.50;99.90;;;;;;5048985;28;19978;-77
2021/12/14 14:00:24;;;;;;;;;;;6.50;99.90;;;;;;5050488;28;19943;-77
2021/12/14 14:02:51;;;;;;;;;;;6.50;99.90;;;;;;5054511;28;20587;-77
2021/12/14 14:05:18;;;;;;;;;;;6.50;99.90;;;;;;5049234;28;19936;-80
2021/12/14 14:07:48;;;;;;;;;;;6.50;99.90;;;;;;5045516;28;19929;-78
2021/12/14 14:10:15;;;;;;;;;;;6.40;99.90;;;;;;5042538;28;19932;-81
2021/12/14 14:12:50;;;;;;;;;;;6.40;99.90;;;;;;5051045;28;19931;-78
2021/12/14 14:15:18;;;;;;;;;;;6.40;99.90;;;;;;5046962;28;19924;-78
2021/12/14 14:17:47;;;;;;;;;;;6.40;99.90;;;;;;5049331;28;19929;-78
2021/12/14 14:20:17;;;;;;;;;;;6.30;99.90;;;;;;5052244;28;20543;-78
2021/12/14 14:22:44;;;;;;;;;;;6.40;99.90;;;;;;5053676;28;19956;-78
2021/12/14 14:25:19;;;;;;;;;;;6.30;99.90;;;;;;5048988;28;19938;-78
2021/12/14 14:27:46;;;;;;;;;;;6.30;99.90;;;;;;5035874;28;19936;-78
2021/12/14 14:30:20;;;;;;;;;;;6.20;99.90;;;;;;5049169;28;20015;-78
2021/12/14 14:33:19;;;;;;;;;;;6.20;99.90;;;;;;5050236;28;19924;-78
2021/12/14 14:35:49;;;;;;;;;;;6.20;99.90;;;;;;5050299;28;19999;-78
2021/12/14 14:38:25;;;;;;;;;;;6.10;99.90;;;;;;5050579;28;19934;-78
2021/12/14 14:40:53;;;;;;;;;;;6.10;99.90;;;;;;5051236;28;19942;-77
2021/12/14 14:43:19;;;;;;;;;;;6.10;99.90;;;;;;5049505;28;19924;-78
2021/12/14 14:45:46;;;;;;;;;;;6.10;99.90;;;;;;5049537;28;20336;-78
2021/12/14 14:48:21;;;;;;;;;;;6.10;99.90;;;;;;5037533;28;19925;-77
2021/12/14 14:50:49;;;;;;;;;;;6.10;99.90;;;;;;5048293;28;19967;-78
2021/12/14 14:53:17;;;;;;;;;;;6.00;99.90;;;;;;5049318;28;19925;-78
2021/12/14 14:55:46;;;;;;;;;;;6.00;99.90;;;;;;5048565;28;19939;-77
2021/12/14 14:58:16;;;;;;;;;;;6.00;99.90;;;;;;5048856;28;20043;-78
2021/12/14 15:00:47;;;;;;;;;;;6.00;99.90;;;;;;5049823;28;20306;-77
2021/12/14 15:03:25;;;;;;;;;;;6.00;99.90;;;;;;5051246;28;19924;-78
2021/12/14 15:06:01;;;;;;;;;;;6.00;99.90;;;;;;5048988;28;20008;-77
2021/12/14 15:08:28;;;;;;;;;;;6.00;99.90;;;;;;5050221;28;19928;-78
2021/12/14 15:11:00;;;;;;;;;;;6.00;99.90;;;;;;5053556;28;20330;-77
2021/12/14 15:13:46;;;;;;;;;;;6.00;99.90;;;;;;5049417;28;20015;-77
2021/12/14 15:16:23;;;;;;;;;;;6.00;99.90;;;;;;5048837;28;19935;-78
2021/12/14 15:19:05;;;;;;;;;;;5.90;99.90;;;;;;5064397;28;19955;-78
2021/12/14 15:21:31;;;;;;;;;;;5.90;99.90;;;;;;5046842;28;20007;-79
2021/12/14 15:24:17;;;;;;;;;;;5.90;99.90;;;;;;5049526;28;19925;-78
2021/12/14 15:29:47;;;;;;;;;;;5.80;99.90;;;;;;5043850;28;20743;-78
2021/12/14 15:32:17;;;;;;;;;;;5.80;99.90;;;;;;5048165;28;20575;-78
2021/12/14 15:34:53;;;;;;;;;;;5.80;99.90;;;;;;5051287;28;19937;-78
2021/12/14 15:37:36;;;;;;;;;;;5.80;99.90;;;;;;5051771;28;19935;-79
2021/12/14 15:40:26;;;;;;;;;;;5.80;99.90;;;;;;5058376;28;19924;-81